sensor_id;sensor_type;location;lat;lon;timestamp;P1;durP1;ratioP1;P2;durP2;ratioP2
61104;SDS011;46987;32.638;-115.438;2023-09-08T00:02:00;6.40;;;1.95;;
61104;SDS011;46987;32.638;-115.438;2023-09-08T00:04:27;9.00;;;2.78;;
61104;SDS011;46987;32.638;-115.438;2023-09-08T00:06:53;9.38;;;2.17;;
61104;SDS011;46987;32.638;-115.438;2023-09-08T00:09:20;8.65;;;1.77;;
61104;SDS011;46987;32.638;-115.438;2023-09-08T00:11:47;7.30;;;1.73;;
61104;SDS011;46987;32.638;-115.438;2023-09-08T00:14:15;10.18;;;2.03;;
61104;SDS011;46987;32.638;-115.438;2023-09-08T00:16:43;7.70;;;2.13;;
61104;SDS011;46987;32.638;-115.438;2023-09-08T00:19:10;11.75;;;2.25;;
61104;SDS011;46987;32.638;-115.438;2023-09-08T00:21:36;8.50;;;2.28;;
61104;SDS011;46987;32.638;-115.438;2023-09-08T00:24:03;10.50;;;2.08;;
61104;SDS011;46987;32.638;-115.438;2023-09-08T00:26:30;8.25;;;2.22;;
61104;SDS011;46987;32.638;-115.438;2023-09-08T00:28:57;8.77;;;2.25;;
61104;SDS011;46987;32.638;-115.438;2023-09-08T00:31:25;7.57;;;1.85;;
61104;SDS011;46987;32.638;-115.438;2023-09-08T00:33:52;9.35;;;2.33;;
61104;SDS011;46987;32.638;-115.438;2023-09-08T00:36:18;7.80;;;2.22;;
61104;SDS011;46987;32.638;-115.438;2023-09-08T00:38:45;14.05;;;2.75;;
61104;SDS011;46987;32.638;-115.438;2023-09-08T00:41:12;7.85;;;2.20;;
61104;SDS011;46987;32.638;-115.438;2023-09-08T00:43:38;7.80;;;2.50;;
61104;SDS011;46987;32.638;-115.438;2023-09-08T00:46:05;10.13;;;2.15;;
61104;SDS011;46987;32.638;-115.438;2023-09-08T00:48:34;11.45;;;2.60;;
61104;SDS011;46987;32.638;-115.438;2023-09-08T00:51:00;11.48;;;2.38;;
61104;SDS011;46987;32.638;-115.438;2023-09-08T00:53:27;8.32;;;2.10;;
61104;SDS011;46987;32.638;-115.438;2023-09-08T00:55:54;15.43;;;3.08;;
61104;SDS011;46987;32.638;-115.438;2023-09-08T00:58:22;6.70;;;2.50;;
61104;SDS011;46987;32.638;-115.438;2023-09-08T01:00:49;9.63;;;2.47;;
61104;SDS011;46987;32.638;-115.438;2023-09-08T01:03:16;12.35;;;3.05;;
61104;SDS011;46987;32.638;-115.438;2023-09-08T01:05:44;7.45;;;2.28;;
61104;SDS011;46987;32.638;-115.438;2023-09-08T01:08:12;5.82;;;2.20;;
61104;SDS011;46987;32.638;-115.438;2023-09-08T01:10:39;11.23;;;2.50;;
61104;SDS011;46987;32.638;-115.438;2023-09-08T01:13:08;6.28;;;2.35;;
61104;SDS011;46987;32.638;-115.438;2023-09-08T01:15:35;6.93;;;2.30;;
61104;SDS011;46987;32.638;-115.438;2023-09-08T01:18:02;9.13;;;2.65;;
61104;SDS011;46987;32.638;-115.438;2023-09-08T01:20:30;6.80;;;2.03;;
61104;SDS011;46987;32.638;-115.438;2023-09-08T01:23:10;7.28;;;2.42;;
61104;SDS011;46987;32.638;-115.438;2023-09-08T01:25:41;8.80;;;2.50;;
61104;SDS011;46987;32.638;-115.438;2023-09-08T01:28:13;12.98;;;2.70;;
61104;SDS011;46987;32.638;-115.438;2023-09-08T01:30:41;10.15;;;2.17;;
61104;SDS011;46987;32.638;-115.438;2023-09-08T01:33:08;7.05;;;1.75;;
61104;SDS011;46987;32.638;-115.438;2023-09-08T01:35:34;6.00;;;1.40;;
61104;SDS011;46987;32.638;-115.438;2023-09-08T01:38:02;8.95;;;2.05;;
61104;SDS011;46987;32.638;-115.438;2023-09-08T01:40:28;8.57;;;2.20;;
61104;SDS011;46987;32.638;-115.438;2023-09-08T01:42:56;10.82;;;2.75;;
61104;SDS011;46987;32.638;-115.438;2023-09-08T01:45:23;9.55;;;2.45;;
61104;SDS011;46987;32.638;-115.438;2023-09-08T01:47:50;14.10;;;3.22;;
61104;SDS011;46987;32.638;-115.438;2023-09-08T01:50:17;13.88;;;2.80;;
61104;SDS011;46987;32.638;-115.438;2023-09-08T01:52:48;8.98;;;2.67;;
61104;SDS011;46987;32.638;-115.438;2023-09-08T01:55:15;30.92;;;5.10;;
61104;SDS011;46987;32.638;-115.438;2023-09-08T01:57:44;20.08;;;3.42;;
61104;SDS011;46987;32.638;-115.438;2023-09-08T02:00:14;12.35;;;3.20;;
61104;SDS011;46987;32.638;-115.438;2023-09-08T02:02:41;11.70;;;2.00;;
61104;SDS011;46987;32.638;-115.438;2023-09-08T02:05:08;12.60;;;3.75;;
61104;SDS011;46987;32.638;-115.438;2023-09-08T02:07:35;10.27;;;3.53;;
61104;SDS011;46987;32.638;-115.438;2023-09-08T02:10:02;10.98;;;3.13;;
61104;SDS011;46987;32.638;-115.438;2023-09-08T02:12:29;12.27;;;2.50;;
61104;SDS011;46987;32.638;-115.438;2023-09-08T02:14:55;10.52;;;3.53;;
61104;SDS011;46987;32.638;-115.438;2023-09-08T02:17:24;12.95;;;2.53;;
61104;SDS011;46987;32.638;-115.438;2023-09-08T02:19:50;8.80;;;2.80;;
61104;SDS011;46987;32.638;-115.438;2023-09-08T02:22:17;15.50;;;4.07;;
61104;SDS011;46987;32.638;-115.438;2023-09-08T02:24:45;13.30;;;3.33;;
61104;SDS011;46987;32.638;-115.438;2023-09-08T02:27:12;17.15;;;3.35;;
61104;SDS011;46987;32.638;-115.438;2023-09-08T02:29:39;18.13;;;3.65;;
61104;SDS011;46987;32.638;-115.438;2023-09-08T02:32:05;12.25;;;3.20;;
61104;SDS011;46987;32.638;-115.438;2023-09-08T02:34:35;17.13;;;3.53;;
61104;SDS011;46987;32.638;-115.438;2023-09-08T02:37:07;22.80;;;5.32;;
61104;SDS011;46987;32.638;-115.438;2023-09-08T02:39:34;13.27;;;2.78;;
61104;SDS011;46987;32.638;-115.438;2023-09-08T02:42:01;11.23;;;2.97;;
61104;SDS011;46987;32.638;-115.438;2023-09-08T02:44:28;11.07;;;2.03;;
61104;SDS011;46987;32.638;-115.438;2023-09-08T02:46:56;8.27;;;2.20;;
61104;SDS011;46987;32.638;-115.438;2023-09-08T02:49:24;10.80;;;2.90;;
61104;SDS011;46987;32.638;-115.438;2023-09-08T02:51:52;7.82;;;2.22;;
61104;SDS011;46987;32.638;-115.438;2023-09-08T02:54:19;9.18;;;2.42;;
61104;SDS011;46987;32.638;-115.438;2023-09-08T02:56:46;9.80;;;2.50;;
61104;SDS011;46987;32.638;-115.438;2023-09-08T02:59:12;11.18;;;2.72;;
61104;SDS011;46987;32.638;-115.438;2023-09-08T03:01:39;8.65;;;2.72;;
61104;SDS011;46987;32.638;-115.438;2023-09-08T03:04:06;9.93;;;2.83;;
61104;SDS011;46987;32.638;-115.438;2023-09-08T03:06:33;11.40;;;2.78;;
61104;SDS011;46987;32.638;-115.438;2023-09-08T03:09:02;8.48;;;2.35;;
61104;SDS011;46987;32.638;-115.438;2023-09-08T03:11:28;7.15;;;1.77;;
61104;SDS011;46987;32.638;-115.438;2023-09-08T03:13:55;8.93;;;1.98;;
61104;SDS011;46987;32.638;-115.438;2023-09-08T03:16:23;6.00;;;1.63;;
61104;SDS011;46987;32.638;-115.438;2023-09-08T03:18:49;9.15;;;2.03;;
61104;SDS011;46987;32.638;-115.438;2023-09-08T03:21:17;12.68;;;2.72;;
61104;SDS011;46987;32.638;-115.438;2023-09-08T03:23:45;7.13;;;1.63;;
61104;SDS011;46987;32.638;-115.438;2023-09-08T03:26:14;11.10;;;2.17;;
61104;SDS011;46987;32.638;-115.438;2023-09-08T03:28:41;9.10;;;2.50;;
61104;SDS011;46987;32.638;-115.438;2023-09-08T03:31:08;8.15;;;1.90;;
61104;SDS011;46987;32.638;-115.438;2023-09-08T03:33:36;10.07;;;1.85;;
61104;SDS011;46987;32.638;-115.438;2023-09-08T03:36:05;9.13;;;1.63;;
61104;SDS011;46987;32.638;-115.438;2023-09-08T03:38:33;13.60;;;2.13;;
61104;SDS011;46987;32.638;-115.438;2023-09-08T03:41:00;9.43;;;2.20;;
61104;SDS011;46987;32.638;-115.438;2023-09-08T03:43:28;11.43;;;2.78;;
61104;SDS011;46987;32.638;-115.438;2023-09-08T03:45:55;11.20;;;2.95;;
61104;SDS011;46987;32.638;-115.438;2023-09-08T03:48:22;17.55;;;2.92;;
61104;SDS011;46987;32.638;-115.438;2023-09-08T03:50:49;14.70;;;2.70;;
61104;SDS011;46987;32.638;-115.438;2023-09-08T03:53:16;10.73;;;2.28;;
61104;SDS011;46987;32.638;-115.438;2023-09-08T03:55:43;16.10;;;3.28;;
61104;SDS011;46987;32.638;-115.438;2023-09-08T03:58:09;11.07;;;4.03;;
61104;SDS011;46987;32.638;-115.438;2023-09-08T04:00:39;17.67;;;5.07;;
61104;SDS011;46987;32.638;-115.438;2023-09-08T04:03:06;13.10;;;6.05;;
61104;SDS011;46987;32.638;-115.438;2023-09-08T04:05:32;15.40;;;6.75;;
61104;SDS011;46987;32.638;-115.438;2023-09-08T04:07:59;14.90;;;6.70;;
61104;SDS011;46987;32.638;-115.438;2023-09-08T04:10:27;11.93;;;5.60;;
61104;SDS011;46987;32.638;-115.438;2023-09-08T04:12:54;14.27;;;4.22;;
61104;SDS011;46987;32.638;-115.438;2023-09-08T04:15:21;9.80;;;3.15;;
61104;SDS011;46987;32.638;-115.438;2023-09-08T04:17:49;10.27;;;2.75;;
61104;SDS011;46987;32.638;-115.438;2023-09-08T04:20:17;8.68;;;2.60;;
61104;SDS011;46987;32.638;-115.438;2023-09-08T04:22:44;14.63;;;2.90;;
61104;SDS011;46987;32.638;-115.438;2023-09-08T04:25:12;10.55;;;2.95;;
61104;SDS011;46987;32.638;-115.438;2023-09-08T04:27:38;10.50;;;3.17;;
61104;SDS011;46987;32.638;-115.438;2023-09-08T04:30:07;11.27;;;3.10;;
61104;SDS011;46987;32.638;-115.438;2023-09-08T04:32:34;9.60;;;3.33;;
61104;SDS011;46987;32.638;-115.438;2023-09-08T04:35:02;11.10;;;3.80;;
61104;SDS011;46987;32.638;-115.438;2023-09-08T04:37:29;9.38;;;3.53;;
61104;SDS011;46987;32.638;-115.438;2023-09-08T04:39:56;15.63;;;4.38;;
61104;SDS011;46987;32.638;-115.438;2023-09-08T04:42:23;12.13;;;4.18;;
61104;SDS011;46987;32.638;-115.438;2023-09-08T04:44:50;13.05;;;3.83;;
61104;SDS011;46987;32.638;-115.438;2023-09-08T04:47:17;12.93;;;3.63;;
61104;SDS011;46987;32.638;-115.438;2023-09-08T04:49:43;11.73;;;3.47;;
61104;SDS011;46987;32.638;-115.438;2023-09-08T04:52:12;12.75;;;3.10;;
61104;SDS011;46987;32.638;-115.438;2023-09-08T04:54:39;10.98;;;2.95;;
61104;SDS011;46987;32.638;-115.438;2023-09-08T04:57:06;8.52;;;2.97;;
61104;SDS011;46987;32.638;-115.438;2023-09-08T04:59:33;7.15;;;2.25;;
61104;SDS011;46987;32.638;-115.438;2023-09-08T05:02:00;14.00;;;2.35;;
61104;SDS011;46987;32.638;-115.438;2023-09-08T05:04:26;7.90;;;2.28;;
61104;SDS011;46987;32.638;-115.438;2023-09-08T05:06:53;9.48;;;3.00;;
61104;SDS011;46987;32.638;-115.438;2023-09-08T05:09:21;8.50;;;2.67;;
61104;SDS011;46987;32.638;-115.438;2023-09-08T05:11:48;10.82;;;2.60;;
61104;SDS011;46987;32.638;-115.438;2023-09-08T05:14:15;9.48;;;2.03;;
61104;SDS011;46987;32.638;-115.438;2023-09-08T05:16:42;9.82;;;2.40;;
61104;SDS011;46987;32.638;-115.438;2023-09-08T05:19:16;7.15;;;1.95;;
61104;SDS011;46987;32.638;-115.438;2023-09-08T05:21:43;14.73;;;2.70;;
61104;SDS011;46987;32.638;-115.438;2023-09-08T05:24:09;8.52;;;2.13;;
61104;SDS011;46987;32.638;-115.438;2023-09-08T05:26:38;10.25;;;1.77;;
61104;SDS011;46987;32.638;-115.438;2023-09-08T05:29:07;10.68;;;2.20;;
61104;SDS011;46987;32.638;-115.438;2023-09-08T05:31:34;7.80;;;2.25;;
61104;SDS011;46987;32.638;-115.438;2023-09-08T05:34:01;12.07;;;2.03;;
61104;SDS011;46987;32.638;-115.438;2023-09-08T05:36:30;8.70;;;2.10;;
61104;SDS011;46987;32.638;-115.438;2023-09-08T05:38:59;7.50;;;1.60;;
61104;SDS011;46987;32.638;-115.438;2023-09-08T05:41:25;8.05;;;1.60;;
61104;SDS011;46987;32.638;-115.438;2023-09-08T05:43:54;6.75;;;1.52;;
61104;SDS011;46987;32.638;-115.438;2023-09-08T05:46:21;7.82;;;1.55;;
61104;SDS011;46987;32.638;-115.438;2023-09-08T05:48:48;7.80;;;1.95;;
61104;SDS011;46987;32.638;-115.438;2023-09-08T05:51:15;5.60;;;1.40;;
61104;SDS011;46987;32.638;-115.438;2023-09-08T05:53:43;6.95;;;1.48;;
61104;SDS011;46987;32.638;-115.438;2023-09-08T05:56:10;7.30;;;1.52;;
61104;SDS011;46987;32.638;-115.438;2023-09-08T05:58:38;7.38;;;2.10;;
61104;SDS011;46987;32.638;-115.438;2023-09-08T06:01:06;6.70;;;1.90;;
61104;SDS011;46987;32.638;-115.438;2023-09-08T06:03:34;8.40;;;1.85;;
61104;SDS011;46987;32.638;-115.438;2023-09-08T06:06:01;5.35;;;2.03;;
61104;SDS011;46987;32.638;-115.438;2023-09-08T06:08:28;9.68;;;2.85;;
61104;SDS011;46987;32.638;-115.438;2023-09-08T06:10:54;8.00;;;2.30;;
61104;SDS011;46987;32.638;-115.438;2023-09-08T06:13:21;9.80;;;2.83;;
61104;SDS011;46987;32.638;-115.438;2023-09-08T06:15:48;13.25;;;2.83;;
61104;SDS011;46987;32.638;-115.438;2023-09-08T06:18:17;13.10;;;2.25;;
61104;SDS011;46987;32.638;-115.438;2023-09-08T06:20:44;11.50;;;2.20;;
61104;SDS011;46987;32.638;-115.438;2023-09-08T06:23:12;10.63;;;2.60;;
61104;SDS011;46987;32.638;-115.438;2023-09-08T06:25:39;9.43;;;2.33;;
61104;SDS011;46987;32.638;-115.438;2023-09-08T06:28:07;8.82;;;2.20;;
61104;SDS011;46987;32.638;-115.438;2023-09-08T06:30:34;10.68;;;2.38;;
61104;SDS011;46987;32.638;-115.438;2023-09-08T06:33:01;13.10;;;3.75;;
61104;SDS011;46987;32.638;-115.438;2023-09-08T06:35:31;15.55;;;3.45;;
61104;SDS011;46987;32.638;-115.438;2023-09-08T06:37:59;13.52;;;2.78;;
61104;SDS011;46987;32.638;-115.438;2023-09-08T06:40:28;11.00;;;3.53;;
61104;SDS011;46987;32.638;-115.438;2023-09-08T06:42:55;13.40;;;3.58;;
61104;SDS011;46987;32.638;-115.438;2023-09-08T06:45:37;12.20;;;3.75;;
61104;SDS011;46987;32.638;-115.438;2023-09-08T06:48:06;12.82;;;3.83;;
61104;SDS011;46987;32.638;-115.438;2023-09-08T06:50:34;12.02;;;3.65;;
61104;SDS011;46987;32.638;-115.438;2023-09-08T06:53:01;14.63;;;3.92;;
61104;SDS011;46987;32.638;-115.438;2023-09-08T06:55:28;11.32;;;3.20;;
61104;SDS011;46987;32.638;-115.438;2023-09-08T06:57:55;13.48;;;3.20;;
61104;SDS011;46987;32.638;-115.438;2023-09-08T07:00:22;8.90;;;3.22;;
61104;SDS011;46987;32.638;-115.438;2023-09-08T07:02:48;9.55;;;2.60;;
61104;SDS011;46987;32.638;-115.438;2023-09-08T07:05:18;7.20;;;2.30;;
61104;SDS011;46987;32.638;-115.438;2023-09-08T07:07:47;8.10;;;2.05;;
61104;SDS011;46987;32.638;-115.438;2023-09-08T07:10:14;6.13;;;1.80;;
61104;SDS011;46987;32.638;-115.438;2023-09-08T07:12:41;6.22;;;1.55;;
61104;SDS011;46987;32.638;-115.438;2023-09-08T07:15:09;7.65;;;1.70;;
61104;SDS011;46987;32.638;-115.438;2023-09-08T07:17:36;6.03;;;1.65;;
61104;SDS011;46987;32.638;-115.438;2023-09-08T07:20:03;7.00;;;2.05;;
61104;SDS011;46987;32.638;-115.438;2023-09-08T07:22:30;5.80;;;1.75;;
61104;SDS011;46987;32.638;-115.438;2023-09-08T07:24:58;5.78;;;1.98;;
61104;SDS011;46987;32.638;-115.438;2023-09-08T07:27:25;6.97;;;2.15;;
61104;SDS011;46987;32.638;-115.438;2023-09-08T07:29:52;8.40;;;2.80;;
61104;SDS011;46987;32.638;-115.438;2023-09-08T07:32:20;6.82;;;2.58;;
61104;SDS011;46987;32.638;-115.438;2023-09-08T07:34:46;10.50;;;3.33;;
61104;SDS011;46987;32.638;-115.438;2023-09-08T07:37:18;8.40;;;3.13;;
61104;SDS011;46987;32.638;-115.438;2023-09-08T07:39:45;11.63;;;2.90;;
61104;SDS011;46987;32.638;-115.438;2023-09-08T07:42:14;8.95;;;3.20;;
61104;SDS011;46987;32.638;-115.438;2023-09-08T07:44:40;11.25;;;3.00;;
61104;SDS011;46987;32.638;-115.438;2023-09-08T07:47:07;7.22;;;2.65;;
61104;SDS011;46987;32.638;-115.438;2023-09-08T07:49:34;8.82;;;2.97;;
61104;SDS011;46987;32.638;-115.438;2023-09-08T07:52:01;8.18;;;2.72;;
61104;SDS011;46987;32.638;-115.438;2023-09-08T07:54:27;9.73;;;2.70;;
61104;SDS011;46987;32.638;-115.438;2023-09-08T07:56:54;9.60;;;2.33;;
61104;SDS011;46987;32.638;-115.438;2023-09-08T07:59:22;7.78;;;2.30;;
61104;SDS011;46987;32.638;-115.438;2023-09-08T08:01:49;9.77;;;2.50;;
61104;SDS011;46987;32.638;-115.438;2023-09-08T08:04:16;10.15;;;2.47;;
61104;SDS011;46987;32.638;-115.438;2023-09-08T08:06:43;8.68;;;2.20;;
61104;SDS011;46987;32.638;-115.438;2023-09-08T08:09:10;10.43;;;2.50;;
61104;SDS011;46987;32.638;-115.438;2023-09-08T08:11:36;5.88;;;2.00;;
61104;SDS011;46987;32.638;-115.438;2023-09-08T08:14:03;9.05;;;2.38;;
61104;SDS011;46987;32.638;-115.438;2023-09-08T08:16:31;7.82;;;2.35;;
61104;SDS011;46987;32.638;-115.438;2023-09-08T08:18:58;9.23;;;2.55;;
61104;SDS011;46987;32.638;-115.438;2023-09-08T08:21:25;6.30;;;2.35;;
61104;SDS011;46987;32.638;-115.438;2023-09-08T08:23:51;5.30;;;1.90;;
61104;SDS011;46987;32.638;-115.438;2023-09-08T08:26:18;8.52;;;2.25;;
61104;SDS011;46987;32.638;-115.438;2023-09-08T08:28:45;9.43;;;2.60;;
61104;SDS011;46987;32.638;-115.438;2023-09-08T08:31:12;7.78;;;2.90;;
61104;SDS011;46987;32.638;-115.438;2023-09-08T08:33:40;12.55;;;3.08;;
61104;SDS011;46987;32.638;-115.438;2023-09-08T08:36:07;9.63;;;3.30;;
61104;SDS011;46987;32.638;-115.438;2023-09-08T08:38:33;7.85;;;3.15;;
61104;SDS011;46987;32.638;-115.438;2023-09-08T08:41:03;6.75;;;2.70;;
61104;SDS011;46987;32.638;-115.438;2023-09-08T08:43:31;8.77;;;2.53;;
61104;SDS011;46987;32.638;-115.438;2023-09-08T08:45:58;5.63;;;2.40;;
61104;SDS011;46987;32.638;-115.438;2023-09-08T08:48:26;7.28;;;2.65;;
61104;SDS011;46987;32.638;-115.438;2023-09-08T08:50:55;5.65;;;2.15;;
61104;SDS011;46987;32.638;-115.438;2023-09-08T08:53:23;6.53;;;2.38;;
61104;SDS011;46987;32.638;-115.438;2023-09-08T08:55:50;6.80;;;2.70;;
61104;SDS011;46987;32.638;-115.438;2023-09-08T08:58:18;7.57;;;2.88;;
61104;SDS011;46987;32.638;-115.438;2023-09-08T09:00:47;7.10;;;2.60;;
61104;SDS011;46987;32.638;-115.438;2023-09-08T09:03:14;8.32;;;3.13;;
61104;SDS011;46987;32.638;-115.438;2023-09-08T09:05:40;6.65;;;2.83;;
61104;SDS011;46987;32.638;-115.438;2023-09-08T09:08:09;8.07;;;2.95;;
61104;SDS011;46987;32.638;-115.438;2023-09-08T09:10:35;8.55;;;2.60;;
61104;SDS011;46987;32.638;-115.438;2023-09-08T09:13:02;6.63;;;2.83;;
61104;SDS011;46987;32.638;-115.438;2023-09-08T09:15:29;8.70;;;2.70;;
61104;SDS011;46987;32.638;-115.438;2023-09-08T09:18:03;7.60;;;2.50;;
61104;SDS011;46987;32.638;-115.438;2023-09-08T09:20:30;9.20;;;2.88;;
61104;SDS011;46987;32.638;-115.438;2023-09-08T09:22:57;8.48;;;2.95;;
61104;SDS011;46987;32.638;-115.438;2023-09-08T09:25:26;7.85;;;2.90;;
61104;SDS011;46987;32.638;-115.438;2023-09-08T09:27:53;11.57;;;3.35;;
61104;SDS011;46987;32.638;-115.438;2023-09-08T09:30:20;6.28;;;2.55;;
61104;SDS011;46987;32.638;-115.438;2023-09-08T09:32:47;6.88;;;2.65;;
61104;SDS011;46987;32.638;-115.438;2023-09-08T09:35:17;9.82;;;3.20;;
61104;SDS011;46987;32.638;-115.438;2023-09-08T09:37:43;8.82;;;2.60;;
61104;SDS011;46987;32.638;-115.438;2023-09-08T09:40:10;8.65;;;3.25;;
61104;SDS011;46987;32.638;-115.438;2023-09-08T09:42:39;9.68;;;3.00;;
61104;SDS011;46987;32.638;-115.438;2023-09-08T09:45:07;7.65;;;3.03;;
61104;SDS011;46987;32.638;-115.438;2023-09-08T09:47:34;11.63;;;3.35;;
61104;SDS011;46987;32.638;-115.438;2023-09-08T09:50:02;9.90;;;3.38;;
61104;SDS011;46987;32.638;-115.438;2023-09-08T09:52:28;9.70;;;3.17;;
61104;SDS011;46987;32.638;-115.438;2023-09-08T09:54:58;8.18;;;3.60;;
61104;SDS011;46987;32.638;-115.438;2023-09-08T09:57:24;9.95;;;4.78;;
61104;SDS011;46987;32.638;-115.438;2023-09-08T09:59:53;10.02;;;7.00;;
61104;SDS011;46987;32.638;-115.438;2023-09-08T10:02:21;12.50;;;6.72;;
61104;SDS011;46987;32.638;-115.438;2023-09-08T10:04:48;13.23;;;6.00;;
61104;SDS011;46987;32.638;-115.438;2023-09-08T10:07:16;8.63;;;4.78;;
61104;SDS011;46987;32.638;-115.438;2023-09-08T10:09:42;9.73;;;4.40;;
61104;SDS011;46987;32.638;-115.438;2023-09-08T10:12:09;8.02;;;4.38;;
61104;SDS011;46987;32.638;-115.438;2023-09-08T10:14:40;8.00;;;3.78;;
61104;SDS011;46987;32.638;-115.438;2023-09-08T10:17:11;12.40;;;3.78;;
61104;SDS011;46987;32.638;-115.438;2023-09-08T10:19:38;10.50;;;3.45;;
61104;SDS011;46987;32.638;-115.438;2023-09-08T10:22:08;8.25;;;3.33;;
61104;SDS011;46987;32.638;-115.438;2023-09-08T10:24:38;9.82;;;3.00;;
61104;SDS011;46987;32.638;-115.438;2023-09-08T10:27:07;10.73;;;2.88;;
61104;SDS011;46987;32.638;-115.438;2023-09-08T10:29:37;7.47;;;3.10;;
61104;SDS011;46987;32.638;-115.438;2023-09-08T10:32:05;10.82;;;3.13;;
61104;SDS011;46987;32.638;-115.438;2023-09-08T10:34:35;9.32;;;2.95;;
61104;SDS011;46987;32.638;-115.438;2023-09-08T10:37:02;9.25;;;3.58;;
61104;SDS011;46987;32.638;-115.438;2023-09-08T10:39:30;8.52;;;2.92;;
61104;SDS011;46987;32.638;-115.438;2023-09-08T10:44:57;11.95;;;3.60;;
61104;SDS011;46987;32.638;-115.438;2023-09-08T10:47:24;9.55;;;3.65;;
61104;SDS011;46987;32.638;-115.438;2023-09-08T10:49:52;10.65;;;4.28;;
61104;SDS011;46987;32.638;-115.438;2023-09-08T10:52:24;13.95;;;4.28;;
61104;SDS011;46987;32.638;-115.438;2023-09-08T10:54:51;8.48;;;3.83;;
61104;SDS011;46987;32.638;-115.438;2023-09-08T10:57:19;11.73;;;4.30;;
61104;SDS011;46987;32.638;-115.438;2023-09-08T10:59:49;13.73;;;4.38;;
61104;SDS011;46987;32.638;-115.438;2023-09-08T11:02:33;12.55;;;4.10;;
61104;SDS011;46987;32.638;-115.438;2023-09-08T11:05:03;11.35;;;4.93;;
61104;SDS011;46987;32.638;-115.438;2023-09-08T11:07:31;14.55;;;5.45;;
61104;SDS011;46987;32.638;-115.438;2023-09-08T11:09:58;12.32;;;4.82;;
61104;SDS011;46987;32.638;-115.438;2023-09-08T11:12:26;15.25;;;5.38;;
61104;SDS011;46987;32.638;-115.438;2023-09-08T11:14:53;12.27;;;5.03;;
61104;SDS011;46987;32.638;-115.438;2023-09-08T11:17:20;13.77;;;5.90;;
61104;SDS011;46987;32.638;-115.438;2023-09-08T11:19:47;15.50;;;5.88;;
61104;SDS011;46987;32.638;-115.438;2023-09-08T11:22:16;12.93;;;5.53;;
61104;SDS011;46987;32.638;-115.438;2023-09-08T11:24:43;13.68;;;5.97;;
61104;SDS011;46987;32.638;-115.438;2023-09-08T11:27:10;14.38;;;5.82;;
61104;SDS011;46987;32.638;-115.438;2023-09-08T11:29:37;17.50;;;6.55;;
61104;SDS011;46987;32.638;-115.438;2023-09-08T11:32:06;16.60;;;6.18;;
61104;SDS011;46987;32.638;-115.438;2023-09-08T11:34:34;13.65;;;6.05;;
61104;SDS011;46987;32.638;-115.438;2023-09-08T11:37:00;11.68;;;5.60;;
61104;SDS011;46987;32.638;-115.438;2023-09-08T11:39:28;11.77;;;5.05;;
61104;SDS011;46987;32.638;-115.438;2023-09-08T11:41:55;11.50;;;4.57;;
61104;SDS011;46987;32.638;-115.438;2023-09-08T11:44:22;12.02;;;4.97;;
61104;SDS011;46987;32.638;-115.438;2023-09-08T11:46:48;9.45;;;5.07;;
61104;SDS011;46987;32.638;-115.438;2023-09-08T11:49:18;11.85;;;4.88;;
61104;SDS011;46987;32.638;-115.438;2023-09-08T11:51:45;12.93;;;4.43;;
61104;SDS011;46987;32.638;-115.438;2023-09-08T11:54:12;11.55;;;4.97;;
61104;SDS011;46987;32.638;-115.438;2023-09-08T11:56:40;11.25;;;4.85;;
61104;SDS011;46987;32.638;-115.438;2023-09-08T11:59:07;10.25;;;4.35;;
61104;SDS011;46987;32.638;-115.438;2023-09-08T12:01:35;16.30;;;5.20;;
61104;SDS011;46987;32.638;-115.438;2023-09-08T12:04:01;12.18;;;5.07;;
61104;SDS011;46987;32.638;-115.438;2023-09-08T12:06:28;8.52;;;4.32;;
61104;SDS011;46987;32.638;-115.438;2023-09-08T12:08:55;12.15;;;5.28;;
61104;SDS011;46987;32.638;-115.438;2023-09-08T12:11:22;14.00;;;6.30;;
61104;SDS011;46987;32.638;-115.438;2023-09-08T12:13:50;12.13;;;5.32;;
61104;SDS011;46987;32.638;-115.438;2023-09-08T12:16:17;15.32;;;9.63;;
61104;SDS011;46987;32.638;-115.438;2023-09-08T12:18:44;34.25;;;25.77;;
61104;SDS011;46987;32.638;-115.438;2023-09-08T12:21:11;24.95;;;20.92;;
61104;SDS011;46987;32.638;-115.438;2023-09-08T12:23:46;16.65;;;12.10;;
61104;SDS011;46987;32.638;-115.438;2023-09-08T12:26:14;15.32;;;8.05;;
61104;SDS011;46987;32.638;-115.438;2023-09-08T12:28:42;12.43;;;6.75;;
61104;SDS011;46987;32.638;-115.438;2023-09-08T12:31:11;9.88;;;5.20;;
61104;SDS011;46987;32.638;-115.438;2023-09-08T12:33:38;10.27;;;5.18;;
61104;SDS011;46987;32.638;-115.438;2023-09-08T12:36:10;13.68;;;5.63;;
61104;SDS011;46987;32.638;-115.438;2023-09-08T12:38:36;12.20;;;5.47;;
61104;SDS011;46987;32.638;-115.438;2023-09-08T12:41:03;12.77;;;5.72;;
61104;SDS011;46987;32.638;-115.438;2023-09-08T12:43:30;12.68;;;5.40;;
61104;SDS011;46987;32.638;-115.438;2023-09-08T12:45:57;10.88;;;4.95;;
61104;SDS011;46987;32.638;-115.438;2023-09-08T12:48:25;13.65;;;5.05;;
61104;SDS011;46987;32.638;-115.438;2023-09-08T12:50:52;11.65;;;5.20;;
61104;SDS011;46987;32.638;-115.438;2023-09-08T12:53:18;16.02;;;5.80;;
61104;SDS011;46987;32.638;-115.438;2023-09-08T12:55:46;14.52;;;6.03;;
61104;SDS011;46987;32.638;-115.438;2023-09-08T12:58:12;13.57;;;6.32;;
61104;SDS011;46987;32.638;-115.438;2023-09-08T13:00:39;11.70;;;6.38;;
61104;SDS011;46987;32.638;-115.438;2023-09-08T13:03:06;17.48;;;7.57;;
61104;SDS011;46987;32.638;-115.438;2023-09-08T13:05:35;15.65;;;6.28;;
61104;SDS011;46987;32.638;-115.438;2023-09-08T13:08:02;14.48;;;6.72;;
61104;SDS011;46987;32.638;-115.438;2023-09-08T13:10:32;17.08;;;7.20;;
61104;SDS011;46987;32.638;-115.438;2023-09-08T13:12:59;22.33;;;7.28;;
61104;SDS011;46987;32.638;-115.438;2023-09-08T13:15:26;18.15;;;7.47;;
61104;SDS011;46987;32.638;-115.438;2023-09-08T13:17:53;20.00;;;8.00;;
61104;SDS011;46987;32.638;-115.438;2023-09-08T13:20:19;19.25;;;8.55;;
61104;SDS011;46987;32.638;-115.438;2023-09-08T13:22:48;18.92;;;8.23;;
61104;SDS011;46987;32.638;-115.438;2023-09-08T13:25:15;19.05;;;8.30;;
61104;SDS011;46987;32.638;-115.438;2023-09-08T13:27:41;18.77;;;10.05;;
61104;SDS011;46987;32.638;-115.438;2023-09-08T13:30:09;19.92;;;8.95;;
61104;SDS011;46987;32.638;-115.438;2023-09-08T13:32:36;21.27;;;9.40;;
61104;SDS011;46987;32.638;-115.438;2023-09-08T13:35:02;22.00;;;9.07;;
61104;SDS011;46987;32.638;-115.438;2023-09-08T13:37:29;24.20;;;9.52;;
61104;SDS011;46987;32.638;-115.438;2023-09-08T13:39:58;22.38;;;9.20;;
61104;SDS011;46987;32.638;-115.438;2023-09-08T13:42:25;20.95;;;9.20;;
61104;SDS011;46987;32.638;-115.438;2023-09-08T13:44:51;22.83;;;8.88;;
61104;SDS011;46987;32.638;-115.438;2023-09-08T13:47:18;21.88;;;8.90;;
61104;SDS011;46987;32.638;-115.438;2023-09-08T13:49:45;27.63;;;9.80;;
61104;SDS011;46987;32.638;-115.438;2023-09-08T13:52:12;27.35;;;10.23;;
61104;SDS011;46987;32.638;-115.438;2023-09-08T13:54:38;23.45;;;10.02;;
61104;SDS011;46987;32.638;-115.438;2023-09-08T13:57:07;25.52;;;12.10;;
61104;SDS011;46987;32.638;-115.438;2023-09-08T13:59:34;30.52;;;11.40;;
61104;SDS011;46987;32.638;-115.438;2023-09-08T14:02:01;31.77;;;13.18;;
61104;SDS011;46987;32.638;-115.438;2023-09-08T14:04:30;50.70;;;17.55;;
61104;SDS011;46987;32.638;-115.438;2023-09-08T14:06:57;40.80;;;13.82;;